Time;durP1;ratioP1;P1;durP2;ratioP2;P2;SDS_P1;SDS_P2;PMS_P1;PMS_P2;Temp;Humidity;BMP_temperature;BMP_pressure;BME280_temperature;BME280_humidity;BME280_pressure;Samples;Min_cycle;Max_cycle;Signal;HPM_P1;HPM_P2
2022/12/21 00:00:53;;;;;;;56.58;32.95;;;9.00;99.90;;;;;;5055740;28;20123;-62
2022/12/21 00:03:18;;;;;;;81.55;35.22;;;9.00;99.90;;;;;;5056014;28;20369;-63
2022/12/21 00:05:44;;;;;;;151.35;40.40;;;9.10;99.90;;;;;;5073572;28;20051;-62
2022/12/21 00:08:10;;;;;;;179.55;43.33;;;9.00;99.90;;;;;;5073036;28;20125;-62
2022/12/21 00:10:35;;;;;;;196.38;38.35;;;9.00;99.90;;;;;;5055413;28;20036;-60
2022/12/21 00:13:01;;;;;;;226.30;44.80;;;9.00;99.90;;;;;;5055852;28;20040;-60
2022/12/21 00:15:26;;;;;;;374.55;50.65;;;9.00;99.90;;;;;;5055973;28;20070;-61
2022/12/21 00:17:52;;;;;;;221.80;38.55;;;8.90;99.90;;;;;;5072168;28;20059;-61
2022/12/21 00:20:17;;;;;;;197.60;37.90;;;8.90;99.90;;;;;;5061229;28;20128;-58
2022/12/21 00:22:43;;;;;;;334.73;48.03;;;8.90;99.90;;;;;;5071858;28;20048;-60
2022/12/21 00:25:09;;;;;;;369.60;47.53;;;8.80;99.90;;;;;;5073452;28;20087;-59
2022/12/21 00:27:34;;;;;;;281.35;38.40;;;8.80;99.90;;;;;;5086608;28;20044;-62
2022/12/21 00:30:00;;;;;;;262.60;39.58;;;8.80;99.90;;;;;;5088619;28;20054;-62
2022/12/21 00:32:26;;;;;;;299.88;40.28;;;8.80;99.90;;;;;;5054371;28;20131;-61
2022/12/21 00:34:52;;;;;;;246.05;35.10;;;8.80;99.90;;;;;;5072603;28;20119;-61
2022/12/21 00:37:17;;;;;;;441.42;47.28;;;8.80;99.90;;;;;;5071005;28;20051;-61
2022/12/21 00:39:43;;;;;;;333.17;37.30;;;8.70;99.90;;;;;;5050465;28;20084;-59
2022/12/21 00:42:09;;;;;;;332.00;40.10;;;8.70;99.90;;;;;;5060442;28;20036;-58
2022/12/21 00:44:34;;;;;;;392.75;42.80;;;8.70;99.90;;;;;;5060936;28;20036;-61
2022/12/21 00:47:00;;;;;;;318.23;36.78;;;8.60;99.90;;;;;;5054517;28;20507;-61
2022/12/21 00:49:25;;;;;;;354.70;41.38;;;8.70;99.90;;;;;;5061041;28;20040;-62
2022/12/21 00:51:51;;;;;;;274.52;35.65;;;8.60;99.90;;;;;;5078580;28;20032;-62
2022/12/21 00:54:16;;;;;;;323.63;41.13;;;8.50;99.90;;;;;;5072942;28;20050;-61
2022/12/21 00:56:42;;;;;;;233.63;30.58;;;8.50;99.90;;;;;;5060265;28;20059;-61
2022/12/21 00:59:08;;;;;;;313.10;36.55;;;8.50;99.90;;;;;;5073073;28;20383;-64
2022/12/21 01:01:34;;;;;;;331.25;34.92;;;8.50;99.90;;;;;;5069491;28;20041;-64
2022/12/21 01:04:00;;;;;;;327.35;36.85;;;8.40;99.90;;;;;;5089118;28;20035;-60
2022/12/21 01:06:30;;;;;;;335.10;36.28;;;8.30;99.90;;;;;;5088393;28;20124;-63
2022/12/21 01:08:56;;;;;;;221.32;29.05;;;8.40;99.90;;;;;;5074448;28;20082;-61
2022/12/21 01:11:23;;;;;;;261.55;28.70;;;8.40;99.90;;;;;;5060680;28;20472;-62
2022/12/21 01:13:49;;;;;;;336.55;34.80;;;8.30;99.90;;;;;;5074191;28;20040;-61
2022/12/21 01:16:27;;;;;;;275.13;32.67;;;8.30;99.90;;;;;;5091043;28;20297;-61
2022/12/21 01:18:53;;;;;;;147.65;26.40;;;8.30;99.90;;;;;;5062680;28;20038;-63
2022/12/21 01:21:21;;;;;;;145.15;25.98;;;8.30;99.90;;;;;;5054352;28;20422;-63
2022/12/21 01:23:48;;;;;;;195.57;27.15;;;8.30;99.90;;;;;;5077837;28;20055;-63
2022/12/21 01:26:14;;;;;;;213.30;28.77;;;8.20;99.90;;;;;;5087830;28;20693;-64
2022/12/21 01:28:39;;;;;;;86.75;21.63;;;8.30;99.90;;;;;;5088578;28;20051;-61
2022/12/21 01:31:05;;;;;;;326.35;34.45;;;8.30;99.90;;;;;;5085000;28;20032;-61
2022/12/21 01:33:31;;;;;;;193.07;27.63;;;8.30;99.90;;;;;;5069196;28;20133;-61
2022/12/21 01:35:56;;;;;;;133.93;24.38;;;8.20;99.90;;;;;;5089353;28;20353;-63
2022/12/21 01:38:22;;;;;;;213.43;29.67;;;8.20;99.90;;;;;;5071625;28;20036;-63
2022/12/21 01:40:48;;;;;;;312.80;34.75;;;8.00;99.90;;;;;;5067998;28;20052;-62
2022/12/21 01:43:37;;;;;;;171.57;24.58;;;8.00;99.90;;;;;;5062667;28;20029;-64
2022/12/21 01:46:05;;;;;;;213.95;28.40;;;7.90;99.90;;;;;;5054574;28;20455;-61
2022/12/21 01:48:39;;;;;;;98.25;20.52;;;7.90;99.90;;;;;;5053886;28;20464;-62
2022/12/21 01:51:06;;;;;;;124.95;22.55;;;8.00;99.90;;;;;;5080877;28;20195;-61
2022/12/21 01:53:36;;;;;;;173.77;25.25;;;8.00;99.90;;;;;;5075000;28;20047;-58
2022/12/21 01:56:04;;;;;;;164.50;23.40;;;7.90;99.90;;;;;;5064642;28;20051;-59
2022/12/21 01:58:32;;;;;;;68.72;19.45;;;8.00;99.90;;;;;;5056153;28;20033;-61
2022/12/21 02:00:59;;;;;;;259.60;28.77;;;8.00;99.90;;;;;;5053891;28;20072;-64
2022/12/21 02:03:29;;;;;;;103.05;19.90;;;8.00;99.90;;;;;;5067287;28;20468;-61
2022/12/21 02:06:05;;;;;;;170.25;24.20;;;8.00;99.90;;;;;;5066338;28;20044;-63
2022/12/21 02:08:30;;;;;;;158.57;23.95;;;7.90;99.90;;;;;;5084459;28;20036;-62
2022/12/21 02:10:58;;;;;;;207.43;24.83;;;7.90;99.90;;;;;;5075585;28;20449;-64
2022/12/21 02:13:23;;;;;;;102.70;21.70;;;7.80;99.90;;;;;;5067177;28;20139;-66
2022/12/21 02:15:58;;;;;;;187.85;25.88;;;7.90;99.90;;;;;;5075754;28;20115;-63
2022/12/21 02:18:26;;;;;;;198.80;25.55;;;7.90;99.90;;;;;;5045345;28;20044;-64
2022/12/21 02:21:22;;;;;;;283.60;31.88;;;7.90;99.90;;;;;;5057505;28;20350;-60
2022/12/21 02:24:18;;;;;;;189.43;29.48;;;7.80;99.90;;;;;;5069690;28;20254;-61
2022/12/21 02:27:02;;;;;;;280.88;32.58;;;7.80;99.90;;;;;;5094789;28;20059;-62
2022/12/21 02:29:39;;;;;;;289.92;34.20;;;7.70;99.90;;;;;;5094187;28;20050;-59
2022/12/21 02:32:42;;;;;;;218.98;30.63;;;7.80;99.90;;;;;;5058932;28;20075;-61
2022/12/21 02:35:27;;;;;;;275.48;34.20;;;7.80;99.90;;;;;;5078829;28;20441;-58
2022/12/21 02:38:33;;;;;;;196.57;32.47;;;7.80;99.90;;;;;;5069633;28;20044;-58
2022/12/21 02:41:07;;;;;;;65.32;20.85;;;7.70;99.90;;;;;;5080743;28;20086;-57
2022/12/21 02:46:52;;;;;;;67.10;20.55;;;7.70;99.90;;;;;;5083281;28;20094;-60
2022/12/21 02:49:38;;;;;;;243.05;28.35;;;7.60;99.90;;;;;;5071401;28;20048;-60
2022/12/21 02:52:10;;;;;;;158.05;23.90;;;7.60;99.90;;;;;;5044634;28;20052;-59
2022/12/21 02:54:40;;;;;;;152.60;23.30;;;7.70;99.90;;;;;;5057189;28;20052;-63
2022/12/21 02:57:06;;;;;;;371.05;32.28;;;7.60;99.90;;;;;;5079961;28;20047;-61
2022/12/21 02:59:36;;;;;;;311.92;30.10;;;7.70;99.90;;;;;;5064564;28;20044;-61
2022/12/21 03:02:25;;;;;;;126.40;20.45;;;7.50;99.90;;;;;;5074127;28;20048;-60
2022/12/21 03:05:15;;;;;;;267.92;25.98;;;7.60;99.90;;;;;;5090066;28;20055;-60
2022/12/21 03:07:53;;;;;;;233.68;24.60;;;7.60;99.90;;;;;;5076052;28;20036;-62
2022/12/21 03:10:36;;;;;;;127.18;18.98;;;7.70;99.90;;;;;;5044617;28;20044;-60
2022/12/21 03:13:12;;;;;;;139.80;19.42;;;7.60;99.90;;;;;;5072042;28;20059;-62
2022/12/21 03:16:00;;;;;;;131.90;20.75;;;7.50;99.90;;;;;;5059286;28;20044;-60
2022/12/21 03:18:37;;;;;;;109.45;18.13;;;7.40;99.90;;;;;;5061927;28;20048;-62
2022/12/21 03:21:12;;;;;;;123.38;18.92;;;7.40;99.90;;;;;;5073747;28;20046;-60
2022/12/21 03:23:41;;;;;;;;;;;7.30;99.90;;;;;;5067386;28;20123;-62
2022/12/21 03:26:29;;;;;;;77.00;15.98;;;7.20;99.90;;;;;;5074697;28;19967;-62
2022/12/21 03:28:57;;;;;;;82.60;16.20;;;7.20;99.90;;;;;;5079997;28;20146;-60
2022/12/21 03:31:28;;;;;;;91.22;16.75;;;7.20;99.90;;;;;;5081437;28;20086;-65
2022/12/21 03:34:03;;;;;;;53.42;14.35;;;7.20;99.90;;;;;;5061856;28;20074;-62
2022/12/21 03:36:39;;;;;;;75.97;15.32;;;7.20;99.90;;;;;;5065438;28;20052;-60
2022/12/21 03:39:10;;;;;;;44.38;14.23;;;7.20;99.90;;;;;;5060236;28;20055;-61
2022/12/21 03:41:46;;;;;;;44.33;15.07;;;7.20;99.90;;;;;;5073256;28;20036;-59
2022/12/21 03:44:17;;;;;;;79.47;16.08;;;7.20;99.90;;;;;;5062352;28;20132;-62
2022/12/21 03:46:50;;;;;;;100.30;18.90;;;7.10;99.90;;;;;;5060752;28;20151;-64
2022/12/21 03:49:34;;;;;;;92.15;19.45;;;7.20;99.90;;;;;;5062835;28;20453;-60
2022/12/21 03:52:12;;;;;;;77.43;19.35;;;7.10;99.90;;;;;;5076810;28;20050;-61
2022/12/21 03:54:56;;;;;;;53.40;18.17;;;7.00;99.90;;;;;;5093054;28;20043;-62
2022/12/21 03:57:23;;;;;;;38.92;16.27;;;7.10;99.90;;;;;;5070150;28;20592;-61
2022/12/21 03:59:52;;;;;;;42.92;15.75;;;7.00;99.90;;;;;;5073106;28;20062;-61
2022/12/21 04:02:39;;;;;;;132.18;21.42;;;7.00;99.90;;;;;;5073757;28;20040;-61
2022/12/21 04:05:15;;;;;;;154.00;22.95;;;7.10;99.90;;;;;;5073347;28;20133;-61
2022/12/21 04:07:42;;;;;;;171.45;22.83;;;7.00;99.90;;;;;;5067947;28;20125;-61
2022/12/21 04:10:11;;;;;;;119.57;20.55;;;7.00;99.90;;;;;;5068249;28;20130;-61
2022/12/21 04:12:37;;;;;;;56.70;15.77;;;7.10;99.90;;;;;;5067934;28;20115;-60
2022/12/21 04:15:16;;;;;;;121.95;19.58;;;7.10;99.90;;;;;;5062179;28;20475;-62
2022/12/21 04:17:43;;;;;;;180.77;19.83;;;7.20;99.90;;;;;;5071382;28;20036;-61
2022/12/21 04:20:13;;;;;;;182.02;21.65;;;7.20;99.90;;;;;;5072989;28;20044;-61
2022/12/21 04:28:19;;;;;;;124.55;18.90;;;7.10;99.90;;;;;;5060517;28;20558;-62
2022/12/21 04:30:45;;;;;;;175.93;22.50;;;7.10;99.90;;;;;;5054756;28;20048;-63
2022/12/21 04:33:13;;;;;;;198.07;24.73;;;7.20;99.90;;;;;;5055498;28;20123;-61
2022/12/21 04:38:30;;;;;;;234.07;26.63;;;7.20;99.90;;;;;;5062650;28;20064;-61
2022/12/21 04:40:57;;;;;;;156.27;25.33;;;7.20;99.90;;;;;;5055098;28;20058;-62
2022/12/21 04:43:24;;;;;;;207.68;24.67;;;7.10;99.90;;;;;;5055817;28;20036;-62
2022/12/21 04:45:57;;;;;;;191.60;27.33;;;7.10;99.90;;;;;;5073105;28;20048;-62
2022/12/21 04:48:23;;;;;;;212.63;31.48;;;7.10;99.90;;;;;;5072618;28;20657;-63
2022/12/21 04:50:48;;;;;;;110.63;24.33;;;7.00;99.90;;;;;;5085201;28;20080;-61
2022/12/21 04:53:14;;;;;;;144.63;27.63;;;7.00;99.90;;;;;;5073146;28;20361;-60
2022/12/21 04:55:43;;;;;;;89.22;21.85;;;7.10;99.90;;;;;;5092715;28;20483;-61
2022/12/21 04:58:09;;;;;;;100.00;25.45;;;7.00;99.90;;;;;;5078863;28;20044;-60
2022/12/21 05:00:34;;;;;;;75.28;24.58;;;7.10;99.90;;;;;;5084883;28;20123;-60
2022/12/21 05:03:00;;;;;;;80.05;26.83;;;7.10;99.90;;;;;;5086729;28;20040;-61
2022/12/21 05:05:26;;;;;;;73.43;25.17;;;7.20;99.90;;;;;;5085311;28;20037;-60
2022/12/21 05:07:52;;;;;;;53.75;24.83;;;7.10;99.90;;;;;;5072931;28;20512;-61
2022/12/21 05:10:18;;;;;;;68.32;26.33;;;7.20;99.90;;;;;;5084706;28;20368;-61
2022/12/21 05:12:43;;;;;;;100.80;27.95;;;7.20;99.90;;;;;;5072479;28;20052;-64
2022/12/21 05:15:09;;;;;;;101.82;30.52;;;7.30;99.90;;;;;;5062302;28;20044;-61
2022/12/21 05:17:35;;;;;;;77.05;29.35;;;7.20;99.90;;;;;;5090175;28;20139;-61
2022/12/21 05:20:00;;;;;;;57.55;26.90;;;7.20;99.90;;;;;;5054549;28;20425;-61
2022/12/21 05:22:26;;;;;;;55.97;25.63;;;7.30;99.90;;;;;;5067761;28;20437;-61
2022/12/21 05:24:52;;;;;;;60.70;25.90;;;7.30;99.90;;;;;;5074605;28;20127;-61
2022/12/21 05:27:17;;;;;;;52.00;25.23;;;7.30;99.90;;;;;;5090655;28;20043;-61
2022/12/21 05:29:43;;;;;;;56.47;25.33;;;7.30;99.90;;;;;;5079130;28;20109;-61
2022/12/21 05:32:08;;;;;;;49.13;25.00;;;7.30;99.90;;;;;;5087612;28;20098;-63
2022/12/21 05:34:34;;;;;;;72.70;28.98;;;7.40;99.90;;;;;;5067495;28;20048;-61
2022/12/21 05:36:59;;;;;;;55.83;25.27;;;7.30;99.90;;;;;;5054343;28;20064;-63
2022/12/21 05:39:25;;;;;;;52.88;24.95;;;7.30;99.90;;;;;;5079389;28;20077;-62
2022/12/21 05:41:50;;;;;;;60.88;26.85;;;7.40;99.90;;;;;;5059392;28;20481;-63
2022/12/21 05:44:16;;;;;;;64.47;26.50;;;7.40;99.90;;;;;;5055099;28;20536;-61
2022/12/21 05:46:42;;;;;;;42.55;22.88;;;7.30;99.90;;;;;;5072308;28;20468;-66
2022/12/21 05:49:07;;;;;;;61.42;27.05;;;7.30;99.90;;;;;;5073808;28;20036;-62
2022/12/21 05:51:33;;;;;;;63.45;26.48;;;7.30;99.90;;;;;;5075922;28;20048;-63
2022/12/21 05:53:59;;;;;;;46.38;24.40;;;7.30;99.90;;;;;;5045390;28;20048;-61
2022/12/21 05:56:25;;;;;;;45.75;23.58;;;7.30;99.90;;;;;;5069398;28;20040;-62
2022/12/21 05:58:50;;;;;;;36.25;22.30;;;7.40;99.90;;;;;;5058383;28;20520;-61
2022/12/21 06:01:16;;;;;;;64.75;25.92;;;7.30;99.90;;;;;;5073412;28;20422;-62
2022/12/21 06:03:41;;;;;;;56.83;26.67;;;7.40;99.90;;;;;;5073051;28;20136;-63
2022/12/21 06:06:14;;;;;;;55.90;26.23;;;7.30;99.90;;;;;;5077346;28;20036;-62
2022/12/21 06:08:40;;;;;;;50.85;23.90;;;7.30;99.90;;;;;;5072962;28;20107;-60
2022/12/21 06:11:09;;;;;;;61.33;27.38;;;7.30;99.90;;;;;;5073832;28;20115;-62
2022/12/21 06:13:35;;;;;;;55.10;25.27;;;7.20;99.90;;;;;;5075117;28;20052;-63
2022/12/21 06:16:03;;;;;;;60.08;26.65;;;7.30;99.90;;;;;;5091407;28;20380;-62
2022/12/21 06:18:29;;;;;;;51.35;25.02;;;7.30;99.90;;;;;;5080665;28;20060;-62
2022/12/21 06:20:54;;;;;;;55.78;25.33;;;7.30;99.90;;;;;;5082000;28;20082;-64
2022/12/21 06:23:20;;;;;;;43.65;23.75;;;7.30;99.90;;;;;;5094318;28;20101;-62
2022/12/21 06:25:46;;;;;;;49.85;24.05;;;7.30;99.90;;;;;;5092901;28;20024;-62
2022/12/21 06:28:11;;;;;;;39.33;22.70;;;7.20;99.90;;;;;;5093240;28;20087;-62
2022/12/21 06:30:37;;;;;;;44.08;24.20;;;7.20;99.90;;;;;;5083281;28;20048;-61
2022/12/21 06:33:03;;;;;;;49.20;25.08;;;7.30;99.90;;;;;;5075871;28;20051;-60
2022/12/21 06:35:28;;;;;;;56.70;25.00;;;7.20;99.90;;;;;;5079034;28;20345;-60
2022/12/21 06:37:54;;;;;;;52.45;24.05;;;7.20;99.90;;;;;;5044291;28;20045;-61
2022/12/21 06:40:20;;;;;;;52.78;25.38;;;7.20;99.90;;;;;;5074156;28;20059;-60
2022/12/21 06:42:46;;;;;;;52.28;25.08;;;7.30;99.90;;;;;;5067023;28;20066;-61
2022/12/21 06:45:11;;;;;;;64.00;27.05;;;7.20;99.90;;;;;;5082769;28;20047;-61
2022/12/21 06:47:37;;;;;;;65.63;27.42;;;7.30;99.90;;;;;;5086926;28;20111;-61
2022/12/21 06:50:03;;;;;;;60.38;25.90;;;7.20;99.90;;;;;;5075233;28;20071;-62
2022/12/21 06:52:33;;;;;;;53.90;24.60;;;7.10;99.90;;;;;;5086541;28;20453;-62
2022/12/21 06:54:58;;;;;;;58.42;24.48;;;7.20;99.90;;;;;;5069111;28;20067;-64
2022/12/21 06:57:24;;;;;;;51.42;24.20;;;7.10;99.90;;;;;;5074760;28;20071;-60
2022/12/21 06:59:49;;;;;;;52.67;25.20;;;7.10;99.90;;;;;;5074868;28;20044;-59
2022/12/21 07:02:15;;;;;;;66.28;27.15;;;7.20;99.90;;;;;;5081608;28;20037;-61
2022/12/21 07:04:40;;;;;;;42.75;23.42;;;7.10;99.90;;;;;;5090938;28;20035;-60
2022/12/21 07:07:06;;;;;;;54.13;25.63;;;7.00;99.90;;;;;;5080029;28;20040;-62
2022/12/21 07:09:31;;;;;;;51.97;25.35;;;7.10;99.90;;;;;;5090611;28;20058;-62
2022/12/21 07:11:57;;;;;;;41.72;23.02;;;7.00;99.90;;;;;;5090597;28;20051;-62
2022/12/21 07:14:22;;;;;;;41.70;22.63;;;7.00;99.90;;;;;;5073175;28;20081;-61
2022/12/21 07:16:48;;;;;;;48.50;24.33;;;7.00;99.90;;;;;;5086532;28;20044;-61
2022/12/21 07:19:14;;;;;;;45.17;22.95;;;7.00;99.90;;;;;;5072023;28;20463;-61
2022/12/21 07:21:39;;;;;;;53.72;24.08;;;6.90;99.90;;;;;;5070261;28;20036;-61
2022/12/21 07:24:06;;;;;;;42.08;22.33;;;7.00;99.90;;;;;;5092159;28;20156;-61
2022/12/21 07:26:31;;;;;;;45.35;23.45;;;6.90;99.90;;;;;;5089615;28;20028;-61
2022/12/21 07:28:57;;;;;;;49.70;24.02;;;6.90;99.90;;;;;;5091222;28;20036;-62
2022/12/21 07:31:25;;;;;;;41.50;22.15;;;6.90;99.90;;;;;;5057349;28;20123;-62
2022/12/21 07:33:52;;;;;;;42.25;22.95;;;7.00;99.90;;;;;;5074396;28;20074;-60
2022/12/21 07:36:17;;;;;;;37.67;22.33;;;6.90;99.90;;;;;;5055949;28;20049;-61
2022/12/21 07:38:43;;;;;;;44.53;22.48;;;6.90;99.90;;;;;;5056694;28;20059;-61
2022/12/21 07:41:10;;;;;;;47.13;25.02;;;6.90;99.90;;;;;;5055911;28;20384;-61
2022/12/21 07:43:37;;;;;;;42.70;24.23;;;7.00;99.90;;;;;;5040428;28;20456;-61
2022/12/21 07:46:03;;;;;;;47.08;24.70;;;6.90;99.90;;;;;;5075136;28;20043;-60
2022/12/21 07:48:34;;;;;;;53.92;26.73;;;7.00;99.90;;;;;;5091530;28;20047;-61
2022/12/21 07:51:00;;;;;;;46.38;25.50;;;6.90;99.90;;;;;;5085940;28;20126;-61
2022/12/21 07:53:26;;;;;;;52.30;26.73;;;6.90;99.90;;;;;;5087418;28;20079;-63
2022/12/21 07:55:52;;;;;;;54.40;27.35;;;7.00;99.90;;;;;;5066466;28;20441;-61
2022/12/21 07:58:17;;;;;;;52.83;27.25;;;6.90;99.90;;;;;;5085997;28;20036;-62
2022/12/21 08:00:43;;;;;;;54.60;27.33;;;7.20;99.90;;;;;;5073649;28;20052;-61
2022/12/21 08:03:08;;;;;;;55.50;28.38;;;6.90;99.90;;;;;;5075896;28;20041;-66
2022/12/21 08:05:34;;;;;;;47.40;27.23;;;7.00;99.90;;;;;;5075077;28;20369;-61
2022/12/21 08:08:02;;;;;;;47.78;27.63;;;7.00;99.90;;;;;;5074556;28;20036;-61
2022/12/21 08:10:28;;;;;;;51.58;27.38;;;7.10;99.90;;;;;;5065348;28;20040;-61
2022/12/21 08:12:54;;;;;;;55.42;29.08;;;7.10;99.90;;;;;;5058586;28;20040;-62
2022/12/21 08:15:21;;;;;;;60.55;30.27;;;7.20;99.90;;;;;;5057498;28;20040;-61
2022/12/21 08:17:47;;;;;;;59.60;31.13;;;7.10;99.90;;;;;;5074290;28;20044;-63
2022/12/21 08:20:13;;;;;;;60.25;30.17;;;7.20;99.90;;;;;;5055764;28;20127;-61
2022/12/21 08:22:39;;;;;;;56.17;28.70;;;7.10;99.90;;;;;;5073169;28;20102;-61
2022/12/21 08:25:05;;;;;;;60.22;29.63;;;7.20;99.90;;;;;;5073760;28;20032;-62
2022/12/21 08:27:31;;;;;;;175.00;33.35;;;7.30;99.90;;;;;;5072175;28;20774;-63
2022/12/21 08:29:56;;;;;;;155.32;28.27;;;7.20;99.90;;;;;;5079009;28;20036;-63
2022/12/21 08:32:22;;;;;;;155.70;28.08;;;7.10;99.90;;;;;;5057139;28;20048;-62
2022/12/21 08:34:48;;;;;;;186.85;34.72;;;7.10;99.90;;;;;;5063634;28;20036;-62
2022/12/21 08:37:13;;;;;;;267.48;39.65;;;7.00;99.90;;;;;;5062112;28;20074;-62
2022/12/21 08:39:39;;;;;;;223.00;36.08;;;7.10;99.90;;;;;;5084605;28;20036;-61
2022/12/21 08:42:04;;;;;;;310.42;44.28;;;7.00;99.90;;;;;;5051110;28;20480;-62
2022/12/21 08:44:30;;;;;;;190.15;34.78;;;7.10;99.90;;;;;;5070631;28;20028;-61
2022/12/21 08:46:56;;;;;;;181.45;33.67;;;7.00;99.90;;;;;;5081129;28;20123;-61
2022/12/21 08:49:21;;;;;;;203.18;40.78;;;7.10;99.90;;;;;;5063982;28;20040;-61
2022/12/21 08:51:47;;;;;;;138.80;36.20;;;7.10;99.90;;;;;;5076843;28;20082;-61
2022/12/21 08:54:12;;;;;;;187.25;40.72;;;7.10;99.90;;;;;;5077657;28;20040;-63
2022/12/21 08:56:38;;;;;;;77.60;31.42;;;7.10;99.90;;;;;;5080548;28;20048;-63
2022/12/21 08:59:06;;;;;;;158.45;38.60;;;7.20;99.90;;;;;;5078030;28;20044;-63
2022/12/21 09:01:33;;;;;;;110.00;36.90;;;7.20;99.90;;;;;;5084497;28;20032;-62
2022/12/21 09:03:59;;;;;;;130.48;40.38;;;7.40;99.90;;;;;;5055274;28;20421;-63
2022/12/21 09:06:25;;;;;;;75.10;32.88;;;7.40;99.90;;;;;;5054699;28;20077;-63
2022/12/21 09:08:51;;;;;;;91.55;35.53;;;7.40;99.90;;;;;;5082162;28;20048;-64
2022/12/21 09:11:19;;;;;;;98.20;38.70;;;7.50;99.90;;;;;;5077757;28;20394;-61
2022/12/21 09:13:45;;;;;;;84.13;34.17;;;7.50;99.90;;;;;;5057916;28;20048;-60
2022/12/21 09:16:23;;;;;;;73.53;34.65;;;7.50;99.90;;;;;;5074568;28;20036;-60
2022/12/21 09:18:49;;;;;;;67.60;33.20;;;7.70;99.90;;;;;;5055116;28;20200;-62
2022/12/21 09:21:17;;;;;;;74.97;34.05;;;7.60;99.90;;;;;;5071866;28;20560;-63
2022/12/21 09:23:43;;;;;;;70.47;32.50;;;7.80;99.90;;;;;;5072158;28;20147;-61
2022/12/21 09:26:10;;;;;;;63.25;31.70;;;7.80;99.90;;;;;;5076457;28;20066;-62
2022/12/21 09:28:36;;;;;;;64.63;32.15;;;7.90;99.90;;;;;;5076540;28;20053;-62
2022/12/21 09:31:20;;;;;;;64.22;30.25;;;7.90;99.90;;;;;;5076287;28;20178;-60
2022/12/21 09:33:47;;;;;;;65.43;29.98;;;7.90;99.90;;;;;;5076443;28;20048;-60
2022/12/21 09:36:14;;;;;;;59.00;29.05;;;7.90;99.90;;;;;;5058966;28;20052;-61
2022/12/21 09:38:40;;;;;;;56.92;28.67;;;8.00;99.90;;;;;;5077389;28;20097;-63
2022/12/21 09:41:05;;;;;;;55.88;29.58;;;8.00;99.90;;;;;;5054848;28;20037;-63
2022/12/21 09:43:45;;;;;;;58.50;29.27;;;8.10;99.90;;;;;;5058792;28;20040;-63
2022/12/21 09:46:13;;;;;;;57.30;29.58;;;8.00;99.90;;;;;;5085308;28;20409;-61
2022/12/21 09:48:56;;;;;;;58.38;28.00;;;8.10;99.90;;;;;;5064323;28;20381;-63
2022/12/21 09:51:27;;;;;;;59.08;28.33;;;8.20;99.90;;;;;;5083846;28;20076;-62
2022/12/21 09:54:07;;;;;;;54.58;28.58;;;8.20;99.90;;;;;;5088376;28;20043;-63
2022/12/21 09:56:39;;;;;;;54.10;29.02;;;8.20;99.90;;;;;;5069983;28;20040;-61
2022/12/21 09:59:10;;;;;;;59.88;29.60;;;8.20;99.90;;;;;;5076242;28;20056;-62
2022/12/21 10:02:01;;;;;;;51.78;28.02;;;8.10;99.90;;;;;;5078156;28;20056;-62
2022/12/21 10:04:51;;;;;;;51.70;28.10;;;8.30;99.90;;;;;;5081859;28;20475;-63
2022/12/21 10:07:48;;;;;;;55.17;27.40;;;8.20;99.90;;;;;;5075576;28;20066;-63
2022/12/21 10:10:30;;;;;;;56.00;27.45;;;8.20;99.90;;;;;;5095141;28;20089;-62
2022/12/21 10:13:14;;;;;;;53.67;27.70;;;8.30;99.90;;;;;;5085223;28;20097;-63
2022/12/21 10:15:59;;;;;;;47.45;26.30;;;8.20;99.90;;;;;;5075549;28;20056;-62
2022/12/21 10:18:49;;;;;;;44.63;25.80;;;8.30;99.90;;;;;;5075649;28;20464;-61
2022/12/21 10:21:42;;;;;;;50.08;25.17;;;8.30;99.90;;;;;;5078927;28;20055;-62
2022/12/21 10:24:24;;;;;;;52.42;27.13;;;8.30;99.90;;;;;;5081396;28;20045;-58
2022/12/21 10:26:58;;;;;;;51.55;27.33;;;8.30;99.90;;;;;;5075072;28;20067;-61
2022/12/21 10:29:34;;;;;;;50.38;27.20;;;8.30;99.90;;;;;;5075452;28;20048;-61
2022/12/21 10:32:00;;;;;;;52.90;27.17;;;8.40;99.90;;;;;;5057982;28;20119;-60
2022/12/21 10:34:35;;;;;;;49.65;28.50;;;8.30;99.90;;;;;;5040693;28;20361;-62
2022/12/21 10:37:09;;;;;;;44.75;27.13;;;8.40;99.90;;;;;;5057481;28;20041;-63
2022/12/21 10:39:35;;;;;;;46.63;26.45;;;8.60;99.90;;;;;;5057832;28;20036;-60
2022/12/21 10:42:16;;;;;;;49.05;27.60;;;8.50;99.90;;;;;;5076311;28;20136;-60
2022/12/21 10:44:41;;;;;;;52.35;28.70;;;8.50;99.90;;;;;;5066073;28;20033;-62
2022/12/21 10:47:22;;;;;;;52.10;28.73;;;8.50;99.90;;;;;;5088407;28;20334;-62
2022/12/21 10:50:02;;;;;;;51.78;29.27;;;8.50;99.90;;;;;;5075846;28;20104;-60
2022/12/21 10:52:41;;;;;;;50.45;29.95;;;8.60;99.90;;;;;;5071222;28;20039;-62
2022/12/21 10:55:32;;;;;;;50.95;29.40;;;8.60;99.90;;;;;;5056993;28;20036;-62
2022/12/21 10:58:01;;;;;;;55.50;30.08;;;8.50;99.90;;;;;;5057546;28;20090;-61
2022/12/21 11:00:29;;;;;;;51.95;28.98;;;8.50;99.90;;;;;;5045069;28;20044;-63
2022/12/21 11:03:00;;;;;;;54.53;29.92;;;8.50;99.90;;;;;;5069124;28;20071;-61
2022/12/21 11:05:33;;;;;;;55.50;30.33;;;8.70;99.90;;;;;;5075816;28;20028;-61
2022/12/21 11:08:13;;;;;;;56.67;31.88;;;8.60;99.90;;;;;;5079030;28;20037;-61
2022/12/21 11:10:40;;;;;;;56.28;30.95;;;8.60;99.90;;;;;;5083124;28;20054;-60
2022/12/21 11:13:06;;;;;;;51.95;32.10;;;8.60;99.90;;;;;;5056595;28;20040;-60
2022/12/21 11:15:33;;;;;;;54.22;30.40;;;8.70;99.90;;;;;;5074687;28;20043;-59
2022/12/21 11:17:59;;;;;;;54.17;28.85;;;8.60;99.90;;;;;;5063970;28;20095;-60
2022/12/21 11:20:26;;;;;;;52.75;29.85;;;8.70;99.90;;;;;;5057168;28;20485;-62
2022/12/21 11:22:55;;;;;;;53.50;29.75;;;8.80;99.90;;;;;;5057768;28;20508;-64
2022/12/21 11:25:30;;;;;;;45.28;26.65;;;8.80;99.90;;;;;;5057491;28;20475;-64
2022/12/21 11:28:00;;;;;;;;;;;8.80;99.90;;;;;;5057277;28;20090;-61
2022/12/21 11:30:31;;;;;;;50.28;28.35;;;8.80;99.90;;;;;;5040322;28;19923;-60
2022/12/21 11:32:58;;;;;;;47.63;26.10;;;8.80;99.90;;;;;;5043867;28;20067;-64
2022/12/21 11:35:31;;;;;;;43.22;25.23;;;8.80;99.90;;;;;;5056707;28;20445;-63
2022/12/21 11:38:10;;;;;;;41.80;25.15;;;8.90;99.90;;;;;;5048202;28;20101;-61
2022/12/21 11:40:36;;;;;;;46.90;25.48;;;8.90;99.90;;;;;;5074041;28;20083;-63
2022/12/21 11:43:15;;;;;;;47.78;24.27;;;8.90;99.90;;;;;;5049646;28;20073;-60
2022/12/21 11:45:52;;;;;;;37.47;22.92;;;9.00;99.90;;;;;;5084983;28;20127;-58
2022/12/21 11:48:32;;;;;;;39.35;23.20;;;9.00;99.90;;;;;;5073529;28;20044;-62
2022/12/21 11:51:09;;;;;;;42.20;22.75;;;9.00;99.90;;;;;;5062288;28;20067;-63
2022/12/21 11:53:51;;;;;;;35.40;22.20;;;9.00;99.90;;;;;;5074092;28;20460;-61
2022/12/21 11:56:22;;;;;;;35.45;20.67;;;9.00;99.90;;;;;;5055613;28;20054;-58
2022/12/21 11:59:19;;;;;;;37.47;20.55;;;9.00;99.90;;;;;;5074455;28;20429;-60
2022/12/21 12:02:24;;;;;;;34.63;20.33;;;9.00;99.90;;;;;;5084240;28;20040;-63
2022/12/21 12:05:19;;;;;;;32.83;18.80;;;9.00;99.90;;;;;;5075847;28;20128;-63
2022/12/21 12:08:00;;;;;;;33.35;19.65;;;8.90;99.90;;;;;;5080077;28;20524;-69
2022/12/21 12:10:59;;;;;;;30.65;18.40;;;8.90;99.90;;;;;;5062460;28;20097;-63
2022/12/21 12:13:58;;;;;;;33.10;19.63;;;8.90;99.90;;;;;;5064570;28;20115;-63
2022/12/21 12:16:42;;;;;;;35.08;20.98;;;8.80;99.90;;;;;;5081231;28;20052;-61
2022/12/21 12:19:28;;;;;;;30.75;20.02;;;8.80;99.90;;;;;;5080337;28;20046;-62
2022/12/21 12:22:12;;;;;;;33.80;20.65;;;8.80;99.90;;;;;;5090336;28;20055;-62
2022/12/21 12:24:49;;;;;;;30.83;21.10;;;8.80;99.90;;;;;;5044383;28;20037;-60
2022/12/21 12:27:26;;;;;;;28.90;21.73;;;8.80;99.90;;;;;;5067634;28;20072;-62
2022/12/21 12:30:05;;;;;;;33.78;22.08;;;8.70;99.90;;;;;;5068661;28;20036;-63
2022/12/21 12:32:33;;;;;;;30.92;23.25;;;8.60;99.90;;;;;;5074296;28;20488;-61
2022/12/21 12:35:05;;;;;;;34.28;22.25;;;8.70;99.90;;;;;;5049135;28;20047;-61
2022/12/21 12:37:56;;;;;;;35.63;22.42;;;8.60;99.90;;;;;;5057530;28;20071;-62
2022/12/21 12:40:38;;;;;;;38.67;24.45;;;8.70;99.90;;;;;;5070317;28;20113;-62
2022/12/21 12:43:23;;;;;;;35.75;22.60;;;8.50;99.90;;;;;;5067624;28;20094;-61
2022/12/21 12:46:08;;;;;;;32.13;21.75;;;8.60;99.90;;;;;;5068832;28;20043;-62
2022/12/21 12:48:43;;;;;;;34.97;22.65;;;8.50;99.90;;;;;;5049992;28;20032;-59
2022/12/21 12:51:37;;;;;;;31.40;21.67;;;8.60;99.90;;;;;;5072741;28;20040;-64
2022/12/21 12:54:40;;;;;;;34.00;22.92;;;8.50;99.90;;;;;;5039199;28;20051;-61
2022/12/21 12:57:24;;;;;;;32.80;21.40;;;8.60;99.90;;;;;;5053789;28;20059;-62
2022/12/21 13:00:11;;;;;;;35.67;22.63;;;8.50;99.90;;;;;;5067506;28;20048;-59
2022/12/21 13:03:06;;;;;;;32.58;22.48;;;8.60;99.90;;;;;;5080283;28;20036;-61
2022/12/21 13:05:54;;;;;;;28.85;21.95;;;8.70;99.90;;;;;;5076992;28;20032;-62